Airfield :







YOU CAN JOIN US ON...

 
LOGIN :

Register | Disclaimer

   EN    FR    IT 

 









Legend :    VFR   Marginal VFR   IFR   Intensive IFR   Very Intensive IFR
Visi :
Ceiling :
>= 8 km
>= 3000ft
5 to 8 km
1000 to 3000 ft
1500m to 5 km
500 to 1000 ft
800 to 1500m
200 to 500 ft
< 800m
< 200 ft
Symbols :   Thunderstorms  Fog  Heavy snow  Heavy precipitations  Wind > 20 kt






- Airport Elevation : 108 ft
- IATA code : YGP


CYGP - Gaspé

CURRENT METAR :
  • 270400Z 00000KT 15SM BKN040 OVC130 15/12 A3009 RMK SC5AC3 SLP191

EXPIRED METARs :
  • 270300Z 00000KT 15SM BKN130 14/12 A3007 RMK AC7 SLP185
  • 270200Z 00000KT 15SM OVC150 14/11 A3006 RMK AC8 SLP180

TAF TAF CYGP
Valid from the 27 at 02:00 until the 27 at 14:00 UTC


270138Z 2702/2714 VRB03KT P6SM SCT050 BKN100
FM271200 10010KT P6SM BKN025 RMK NXT FCST BY 270800Z
CZUL FIR / North America



MET'MAP, your aeronautical weather chart ! - Copyright ORBIFLY December 2007 - Disclaimer

ORBIFLY MET'MAP TEAM :

Programming & Development : Alexandra Zaïnal
Concept & original design : Baudouin d'Aumeries
Assistance for programming : Marc-Olivier Méhu
Technical & hardware support : Manuel Goepfert

Contact : metmap@orbifly.com




SOURCES & CREDITS :

   NOAA